sensor_id;sensor_type;location;lat;lon;timestamp;pressure;altitude;pressure_sealevel;temperature;humidity
16016;BME280;8112;53.592;10.184;2022-10-16T00:00:12;100623.09;;;14.25;100.00
16016;BME280;8112;53.592;10.184;2022-10-16T00:05:13;100619.88;;;14.33;100.00
16016;BME280;8112;53.592;10.184;2022-10-16T00:10:16;100627.53;;;14.25;100.00
16016;BME280;8112;53.592;10.184;2022-10-16T00:15:18;100635.72;;;14.22;100.00
16016;BME280;8112;53.592;10.184;2022-10-16T00:20:20;100632.13;;;14.11;100.00
16016;BME280;8112;53.592;10.184;2022-10-16T00:25:23;100635.44;;;14.02;100.00
16016;BME280;8112;53.592;10.184;2022-10-16T00:30:24;100633.03;;;13.99;100.00
16016;BME280;8112;53.592;10.184;2022-10-16T00:35:27;100625.09;;;13.99;100.00
16016;BME280;8112;53.592;10.184;2022-10-16T00:40:30;100643.72;;;13.97;100.00
16016;BME280;8112;53.592;10.184;2022-10-16T00:45:32;100652.03;;;13.93;100.00
16016;BME280;8112;53.592;10.184;2022-10-16T00:50:34;100646.22;;;13.88;100.00
16016;BME280;8112;53.592;10.184;2022-10-16T00:55:37;100657.28;;;13.81;100.00
16016;BME280;8112;53.592;10.184;2022-10-16T01:00:39;100650.41;;;13.79;100.00
16016;BME280;8112;53.592;10.184;2022-10-16T01:05:45;100660.16;;;13.78;100.00
16016;BME280;8112;53.592;10.184;2022-10-16T01:10:55;100661.06;;;13.66;100.00
16016;BME280;8112;53.592;10.184;2022-10-16T01:16:02;100667.31;;;13.65;100.00
16016;BME280;8112;53.592;10.184;2022-10-16T01:21:09;100674.75;;;13.60;100.00
16016;BME280;8112;53.592;10.184;2022-10-16T01:26:25;100679.00;;;13.49;100.00
16016;BME280;8112;53.592;10.184;2022-10-16T01:31:36;100681.56;;;13.51;100.00
16016;BME280;8112;53.592;10.184;2022-10-16T01:36:41;100691.75;;;13.44;100.00
16016;BME280;8112;53.592;10.184;2022-10-16T01:41:46;100677.56;;;13.45;100.00
16016;BME280;8112;53.592;10.184;2022-10-16T01:46:52;100678.06;;;13.37;100.00
16016;BME280;8112;53.592;10.184;2022-10-16T01:51:56;100674.59;;;13.37;100.00
16016;BME280;8112;53.592;10.184;2022-10-16T01:57:01;100671.19;;;13.35;100.00
16016;BME280;8112;53.592;10.184;2022-10-16T02:02:09;100683.81;;;13.31;100.00
16016;BME280;8112;53.592;10.184;2022-10-16T02:07:12;100678.84;;;13.26;100.00
16016;BME280;8112;53.592;10.184;2022-10-16T02:12:20;100684.38;;;13.23;100.00
16016;BME280;8112;53.592;10.184;2022-10-16T02:17:25;100683.19;;;13.28;100.00
16016;BME280;8112;53.592;10.184;2022-10-16T02:22:28;100682.66;;;13.22;100.00
16016;BME280;8112;53.592;10.184;2022-10-16T02:27:34;100668.06;;;13.17;100.00
16016;BME280;8112;53.592;10.184;2022-10-16T02:32:43;100675.16;;;13.16;100.00
16016;BME280;8112;53.592;10.184;2022-10-16T02:37:46;100679.31;;;12.94;100.00
16016;BME280;8112;53.592;10.184;2022-10-16T02:42:50;100686.06;;;12.98;100.00
16016;BME280;8112;53.592;10.184;2022-10-16T02:47:56;100682.19;;;12.91;100.00
16016;BME280;8112;53.592;10.184;2022-10-16T02:52:58;100666.31;;;12.91;100.00
16016;BME280;8112;53.592;10.184;2022-10-16T02:58:00;100694.56;;;12.78;100.00
16016;BME280;8112;53.592;10.184;2022-10-16T03:03:02;100688.44;;;12.77;100.00
16016;BME280;8112;53.592;10.184;2022-10-16T03:08:04;100691.19;;;12.76;100.00
16016;BME280;8112;53.592;10.184;2022-10-16T03:13:06;100685.25;;;12.59;100.00
16016;BME280;8112;53.592;10.184;2022-10-16T03:18:09;100675.31;;;12.63;100.00
16016;BME280;8112;53.592;10.184;2022-10-16T03:23:11;100677.00;;;12.51;100.00
16016;BME280;8112;53.592;10.184;2022-10-16T03:28:12;100685.25;;;12.46;100.00
16016;BME280;8112;53.592;10.184;2022-10-16T03:33:15;100685.78;;;12.51;100.00
16016;BME280;8112;53.592;10.184;2022-10-16T03:38:17;100686.72;;;12.37;100.00
16016;BME280;8112;53.592;10.184;2022-10-16T03:43:19;100684.19;;;12.36;100.00
16016;BME280;8112;53.592;10.184;2022-10-16T03:48:21;100708.59;;;12.39;100.00
16016;BME280;8112;53.592;10.184;2022-10-16T03:53:23;100688.94;;;12.44;100.00
16016;BME280;8112;53.592;10.184;2022-10-16T03:58:25;100692.75;;;12.39;100.00
16016;BME280;8112;53.592;10.184;2022-10-16T04:03:28;100694.34;;;12.42;100.00
16016;BME280;8112;53.592;10.184;2022-10-16T04:08:29;100697.41;;;12.49;100.00
16016;BME280;8112;53.592;10.184;2022-10-16T04:13:35;100708.19;;;12.46;100.00
16016;BME280;8112;53.592;10.184;2022-10-16T04:18:38;100717.47;;;12.38;100.00
16016;BME280;8112;53.592;10.184;2022-10-16T04:23:39;100727.31;;;12.36;100.00
16016;BME280;8112;53.592;10.184;2022-10-16T04:28:41;100736.94;;;12.37;100.00
16016;BME280;8112;53.592;10.184;2022-10-16T04:33:44;100733.63;;;12.34;100.00
16016;BME280;8112;53.592;10.184;2022-10-16T04:38:45;100730.97;;;12.21;100.00
16016;BME280;8112;53.592;10.184;2022-10-16T04:43:47;100735.22;;;12.23;100.00
16016;BME280;8112;53.592;10.184;2022-10-16T04:48:50;100747.75;;;12.20;100.00
16016;BME280;8112;53.592;10.184;2022-10-16T04:53:51;100751.75;;;12.13;100.00
16016;BME280;8112;53.592;10.184;2022-10-16T04:58:53;100755.97;;;12.15;100.00
16016;BME280;8112;53.592;10.184;2022-10-16T05:03:56;100756.84;;;12.16;100.00
16016;BME280;8112;53.592;10.184;2022-10-16T05:08:58;100762.41;;;12.11;100.00
16016;BME280;8112;53.592;10.184;2022-10-16T05:14:00;100768.84;;;12.07;100.00
16016;BME280;8112;53.592;10.184;2022-10-16T05:19:03;100771.13;;;11.98;100.00
16016;BME280;8112;53.592;10.184;2022-10-16T05:24:04;100782.72;;;11.96;100.00
16016;BME280;8112;53.592;10.184;2022-10-16T05:29:06;100784.81;;;11.91;100.00
16016;BME280;8112;53.592;10.184;2022-10-16T05:34:09;100781.97;;;11.94;100.00
16016;BME280;8112;53.592;10.184;2022-10-16T05:39:11;100799.88;;;11.89;100.00
16016;BME280;8112;53.592;10.184;2022-10-16T05:44:12;100797.06;;;11.92;100.00
16016;BME280;8112;53.592;10.184;2022-10-16T05:49:15;100791.13;;;11.88;100.00
16016;BME280;8112;53.592;10.184;2022-10-16T05:54:17;100789.69;;;11.97;100.00
16016;BME280;8112;53.592;10.184;2022-10-16T05:59:19;100793.66;;;12.04;100.00
16016;BME280;8112;53.592;10.184;2022-10-16T06:04:21;100795.06;;;12.10;100.00
16016;BME280;8112;53.592;10.184;2022-10-16T06:09:23;100806.81;;;12.19;100.00
16016;BME280;8112;53.592;10.184;2022-10-16T06:14:25;100808.81;;;12.15;100.00
16016;BME280;8112;53.592;10.184;2022-10-16T06:19:28;100810.91;;;12.10;100.00
16016;BME280;8112;53.592;10.184;2022-10-16T06:24:29;100814.41;;;12.10;100.00
16016;BME280;8112;53.592;10.184;2022-10-16T06:29:31;100811.16;;;12.20;100.00
16016;BME280;8112;53.592;10.184;2022-10-16T06:34:37;100817.59;;;12.16;100.00
16016;BME280;8112;53.592;10.184;2022-10-16T06:39:40;100825.06;;;12.09;100.00
16016;BME280;8112;53.592;10.184;2022-10-16T06:44:41;100826.06;;;12.21;100.00
16016;BME280;8112;53.592;10.184;2022-10-16T06:49:44;100842.41;;;12.40;100.00
16016;BME280;8112;53.592;10.184;2022-10-16T06:54:49;100838.78;;;12.56;100.00
16016;BME280;8112;53.592;10.184;2022-10-16T06:59:51;100833.81;;;12.92;100.00
16016;BME280;8112;53.592;10.184;2022-10-16T07:04:54;100856.69;;;13.32;100.00
16016;BME280;8112;53.592;10.184;2022-10-16T07:09:57;100858.19;;;13.36;100.00
16016;BME280;8112;53.592;10.184;2022-10-16T07:14:58;100864.94;;;13.79;100.00
16016;BME280;8112;53.592;10.184;2022-10-16T07:20:01;100870.75;;;13.97;100.00
16016;BME280;8112;53.592;10.184;2022-10-16T07:25:04;100876.31;;;14.43;100.00
16016;BME280;8112;53.592;10.184;2022-10-16T07:30:06;100877.38;;;14.77;100.00
16016;BME280;8112;53.592;10.184;2022-10-16T07:35:09;100871.06;;;14.54;100.00
16016;BME280;8112;53.592;10.184;2022-10-16T07:40:11;100885.00;;;14.45;100.00
16016;BME280;8112;53.592;10.184;2022-10-16T07:45:13;100893.28;;;14.16;100.00
16016;BME280;8112;53.592;10.184;2022-10-16T07:50:16;100903.50;;;13.96;100.00
16016;BME280;8112;53.592;10.184;2022-10-16T07:55:17;100917.19;;;14.27;100.00
16016;BME280;8112;53.592;10.184;2022-10-16T08:00:19;100906.22;;;14.69;100.00
16016;BME280;8112;53.592;10.184;2022-10-16T08:05:22;100906.13;;;14.95;100.00
16016;BME280;8112;53.592;10.184;2022-10-16T08:10:25;100898.56;;;15.02;100.00
16016;BME280;8112;53.592;10.184;2022-10-16T08:15:27;100901.59;;;14.60;100.00
16016;BME280;8112;53.592;10.184;2022-10-16T08:20:31;100911.22;;;14.36;100.00
16016;BME280;8112;53.592;10.184;2022-10-16T08:25:34;100923.44;;;14.26;100.00
16016;BME280;8112;53.592;10.184;2022-10-16T08:30:37;100934.81;;;14.28;100.00
16016;BME280;8112;53.592;10.184;2022-10-16T08:35:39;100930.13;;;14.32;100.00
16016;BME280;8112;53.592;10.184;2022-10-16T08:40:42;100929.19;;;14.57;100.00
16016;BME280;8112;53.592;10.184;2022-10-16T08:45:52;100927.94;;;14.99;100.00
16016;BME280;8112;53.592;10.184;2022-10-16T08:51:01;100922.22;;;15.05;100.00
16016;BME280;8112;53.592;10.184;2022-10-16T08:56:04;100925.59;;;15.18;100.00
16016;BME280;8112;53.592;10.184;2022-10-16T09:01:12;100927.47;;;15.29;100.00
16016;BME280;8112;53.592;10.184;2022-10-16T09:06:31;100943.03;;;15.34;100.00
16016;BME280;8112;53.592;10.184;2022-10-16T09:11:43;100947.53;;;15.45;100.00
16016;BME280;8112;53.592;10.184;2022-10-16T09:16:52;100952.91;;;15.67;100.00
16016;BME280;8112;53.592;10.184;2022-10-16T09:22:00;100956.22;;;15.94;100.00
16016;BME280;8112;53.592;10.184;2022-10-16T09:27:03;100957.97;;;15.82;100.00
16016;BME280;8112;53.592;10.184;2022-10-16T09:32:10;100955.19;;;15.84;100.00
16016;BME280;8112;53.592;10.184;2022-10-16T09:37:18;100960.25;;;15.87;100.00
16016;BME280;8112;53.592;10.184;2022-10-16T09:42:22;100964.91;;;15.96;100.00
16016;BME280;8112;53.592;10.184;2022-10-16T09:47:26;100965.50;;;16.11;100.00
16016;BME280;8112;53.592;10.184;2022-10-16T09:52:31;100962.25;;;16.30;100.00
16016;BME280;8112;53.592;10.184;2022-10-16T09:57:33;100966.19;;;16.36;100.00
16016;BME280;8112;53.592;10.184;2022-10-16T10:02:36;100972.22;;;16.49;100.00
16016;BME280;8112;53.592;10.184;2022-10-16T10:07:43;100975.69;;;16.73;100.00
16016;BME280;8112;53.592;10.184;2022-10-16T10:12:46;100990.88;;;16.93;100.00
16016;BME280;8112;53.592;10.184;2022-10-16T10:17:49;100982.53;;;17.31;100.00
16016;BME280;8112;53.592;10.184;2022-10-16T10:22:53;100998.72;;;17.39;100.00
16016;BME280;8112;53.592;10.184;2022-10-16T10:28:29;100992.06;;;17.55;100.00
16016;BME280;8112;53.592;10.184;2022-10-16T10:33:39;100993.00;;;17.65;100.00
16016;BME280;8112;53.592;10.184;2022-10-16T10:38:49;101010.72;;;17.76;100.00
16016;BME280;8112;53.592;10.184;2022-10-16T10:44:00;101006.91;;;18.21;100.00
16016;BME280;8112;53.592;10.184;2022-10-16T10:49:23;101005.06;;;18.52;100.00
16016;BME280;8112;53.592;10.184;2022-10-16T10:54:35;101014.09;;;18.81;100.00
16016;BME280;8112;53.592;10.184;2022-10-16T11:00:02;101001.53;;;19.13;100.00
16016;BME280;8112;53.592;10.184;2022-10-16T11:05:28;101004.56;;;19.67;100.00
16016;BME280;8112;53.592;10.184;2022-10-16T11:10:41;101010.66;;;19.00;100.00
16016;BME280;8112;53.592;10.184;2022-10-16T11:15:45;101009.03;;;19.86;100.00
16016;BME280;8112;53.592;10.184;2022-10-16T11:20:51;101004.66;;;20.61;100.00
16016;BME280;8112;53.592;10.184;2022-10-16T11:25:59;101003.03;;;21.77;100.00
16016;BME280;8112;53.592;10.184;2022-10-16T11:31:08;101017.56;;;20.65;100.00
16016;BME280;8112;53.592;10.184;2022-10-16T11:36:15;101029.22;;;19.41;100.00
16016;BME280;8112;53.592;10.184;2022-10-16T11:41:24;101031.38;;;18.77;100.00
16016;BME280;8112;53.592;10.184;2022-10-16T11:46:28;101035.22;;;19.83;100.00
16016;BME280;8112;53.592;10.184;2022-10-16T11:51:36;101038.03;;;20.57;100.00
16016;BME280;8112;53.592;10.184;2022-10-16T11:56:43;101046.66;;;19.35;100.00
16016;BME280;8112;53.592;10.184;2022-10-16T12:01:49;101054.34;;;19.98;100.00
16016;BME280;8112;53.592;10.184;2022-10-16T12:06:57;101068.97;;;18.95;100.00
16016;BME280;8112;53.592;10.184;2022-10-16T12:12:02;101066.59;;;18.51;100.00
16016;BME280;8112;53.592;10.184;2022-10-16T12:17:23;101070.94;;;18.52;100.00
16016;BME280;8112;53.592;10.184;2022-10-16T12:22:27;101069.56;;;19.77;100.00
16016;BME280;8112;53.592;10.184;2022-10-16T12:27:32;101077.16;;;20.68;100.00
16016;BME280;8112;53.592;10.184;2022-10-16T12:32:36;101082.28;;;21.17;100.00
16016;BME280;8112;53.592;10.184;2022-10-16T12:37:39;101089.25;;;21.28;100.00
16016;BME280;8112;53.592;10.184;2022-10-16T12:42:42;101082.78;;;21.57;100.00
16016;BME280;8112;53.592;10.184;2022-10-16T12:47:49;101093.13;;;21.52;100.00
16016;BME280;8112;53.592;10.184;2022-10-16T12:52:51;101103.41;;;22.19;100.00
16016;BME280;8112;53.592;10.184;2022-10-16T12:58:05;101108.41;;;21.69;100.00
16016;BME280;8112;53.592;10.184;2022-10-16T13:14:21;101124.56;;;20.57;100.00
16016;BME280;8112;53.592;10.184;2022-10-16T13:19:32;101135.53;;;20.64;100.00
16016;BME280;8112;53.592;10.184;2022-10-16T13:24:49;101145.91;;;20.77;100.00
16016;BME280;8112;53.592;10.184;2022-10-16T13:30:00;101163.81;;;20.76;100.00
16016;BME280;8112;53.592;10.184;2022-10-16T13:35:03;101164.34;;;20.52;100.00
16016;BME280;8112;53.592;10.184;2022-10-16T13:40:17;101170.53;;;20.43;100.00
16016;BME280;8112;53.592;10.184;2022-10-16T13:45:23;101180.84;;;20.75;100.00
16016;BME280;8112;53.592;10.184;2022-10-16T13:50:25;101188.94;;;20.65;100.00
16016;BME280;8112;53.592;10.184;2022-10-16T13:55:27;101189.63;;;20.68;100.00
16016;BME280;8112;53.592;10.184;2022-10-16T14:00:30;101193.13;;;20.88;100.00
16016;BME280;8112;53.592;10.184;2022-10-16T14:05:32;101198.13;;;21.01;100.00
16016;BME280;8112;53.592;10.184;2022-10-16T14:10:34;101198.06;;;21.85;100.00
16016;BME280;8112;53.592;10.184;2022-10-16T14:15:37;101217.91;;;21.74;95.83
16016;BME280;8112;53.592;10.184;2022-10-16T14:20:39;101225.78;;;21.75;96.33
16016;BME280;8112;53.592;10.184;2022-10-16T14:25:42;101226.81;;;20.90;98.35
16016;BME280;8112;53.592;10.184;2022-10-16T14:30:53;101237.56;;;19.72;100.00
16016;BME280;8112;53.592;10.184;2022-10-16T14:36:03;101247.81;;;18.85;100.00
16016;BME280;8112;53.592;10.184;2022-10-16T14:41:06;101260.53;;;18.72;100.00
16016;BME280;8112;53.592;10.184;2022-10-16T14:46:12;101256.22;;;18.38;100.00
16016;BME280;8112;53.592;10.184;2022-10-16T14:51:15;101262.91;;;18.00;100.00
16016;BME280;8112;53.592;10.184;2022-10-16T14:56:19;101267.06;;;18.04;100.00
16016;BME280;8112;53.592;10.184;2022-10-16T15:01:23;101275.78;;;18.06;100.00
16016;BME280;8112;53.592;10.184;2022-10-16T15:06:25;101275.44;;;17.88;100.00
16016;BME280;8112;53.592;10.184;2022-10-16T15:11:26;101285.88;;;17.79;100.00
16016;BME280;8112;53.592;10.184;2022-10-16T15:16:30;101281.63;;;17.77;100.00
16016;BME280;8112;53.592;10.184;2022-10-16T15:21:32;101296.44;;;17.70;100.00
16016;BME280;8112;53.592;10.184;2022-10-16T15:26:34;101296.69;;;17.44;100.00
16016;BME280;8112;53.592;10.184;2022-10-16T15:31:37;101308.31;;;17.08;100.00
16016;BME280;8112;53.592;10.184;2022-10-16T15:36:42;101307.72;;;17.05;100.00
16016;BME280;8112;53.592;10.184;2022-10-16T15:41:45;101317.56;;;16.91;100.00
16016;BME280;8112;53.592;10.184;2022-10-16T15:46:54;101319.22;;;16.70;100.00
16016;BME280;8112;53.592;10.184;2022-10-16T15:51:56;101335.63;;;16.63;100.00
16016;BME280;8112;53.592;10.184;2022-10-16T15:56:57;101342.78;;;16.38;100.00
16016;BME280;8112;53.592;10.184;2022-10-16T16:02:00;101353.66;;;16.35;100.00
16016;BME280;8112;53.592;10.184;2022-10-16T16:07:02;101355.03;;;16.17;100.00
16016;BME280;8112;53.592;10.184;2022-10-16T16:12:03;101369.94;;;16.06;100.00
16016;BME280;8112;53.592;10.184;2022-10-16T16:17:06;101368.19;;;15.94;100.00
16016;BME280;8112;53.592;10.184;2022-10-16T16:22:08;101371.78;;;15.80;100.00
16016;BME280;8112;53.592;10.184;2022-10-16T16:27:10;101374.22;;;15.70;100.00
16016;BME280;8112;53.592;10.184;2022-10-16T16:32:14;101383.50;;;15.51;100.00
16016;BME280;8112;53.592;10.184;2022-10-16T16:37:16;101403.91;;;15.38;100.00
16016;BME280;8112;53.592;10.184;2022-10-16T16:42:17;101411.75;;;15.27;100.00
16016;BME280;8112;53.592;10.184;2022-10-16T16:47:20;101422.03;;;15.18;100.00
16016;BME280;8112;53.592;10.184;2022-10-16T16:52:22;101422.88;;;15.06;100.00
16016;BME280;8112;53.592;10.184;2022-10-16T16:57:23;101434.97;;;14.97;100.00
16016;BME280;8112;53.592;10.184;2022-10-16T17:02:26;101446.84;;;14.91;100.00
16016;BME280;8112;53.592;10.184;2022-10-16T17:07:31;101458.25;;;14.79;100.00
16016;BME280;8112;53.592;10.184;2022-10-16T17:12:33;101457.72;;;14.59;100.00
16016;BME280;8112;53.592;10.184;2022-10-16T17:17:36;101472.91;;;14.43;100.00
16016;BME280;8112;53.592;10.184;2022-10-16T17:22:37;101465.34;;;14.36;100.00
16016;BME280;8112;53.592;10.184;2022-10-16T17:28:05;101483.16;;;14.34;100.00
16016;BME280;8112;53.592;10.184;2022-10-16T17:33:10;101495.00;;;14.29;100.00
16016;BME280;8112;53.592;10.184;2022-10-16T17:38:13;101499.00;;;14.21;100.00
16016;BME280;8112;53.592;10.184;2022-10-16T17:43:16;101503.06;;;14.13;100.00
16016;BME280;8112;53.592;10.184;2022-10-16T17:48:19;101522.34;;;14.00;100.00
16016;BME280;8112;53.592;10.184;2022-10-16T17:53:20;101536.19;;;13.91;100.00
16016;BME280;8112;53.592;10.184;2022-10-16T17:58:22;101540.81;;;13.87;100.00
16016;BME280;8112;53.592;10.184;2022-10-16T18:03:25;101557.88;;;13.67;100.00
16016;BME280;8112;53.592;10.184;2022-10-16T18:08:27;101556.16;;;13.35;100.00
16016;BME280;8112;53.592;10.184;2022-10-16T18:13:29;101547.13;;;13.23;100.00
16016;BME280;8112;53.592;10.184;2022-10-16T18:18:32;101556.00;;;13.22;100.00
16016;BME280;8112;53.592;10.184;2022-10-16T18:23:35;101552.06;;;12.97;100.00
16016;BME280;8112;53.592;10.184;2022-10-16T18:28:37;101570.69;;;12.80;100.00
16016;BME280;8112;53.592;10.184;2022-10-16T18:33:41;101583.66;;;12.68;100.00
16016;BME280;8112;53.592;10.184;2022-10-16T18:38:47;101591.00;;;12.79;100.00
16016;BME280;8112;53.592;10.184;2022-10-16T18:43:49;101596.66;;;12.89;100.00
16016;BME280;8112;53.592;10.184;2022-10-16T18:48:54;101598.53;;;12.87;100.00
16016;BME280;8112;53.592;10.184;2022-10-16T18:53:57;101607.22;;;12.89;100.00
16016;BME280;8112;53.592;10.184;2022-10-16T18:59:01;101613.00;;;12.80;100.00
16016;BME280;8112;53.592;10.184;2022-10-16T19:04:07;101614.09;;;12.60;100.00
16016;BME280;8112;53.592;10.184;2022-10-16T19:09:11;101604.28;;;12.78;100.00
16016;BME280;8112;53.592;10.184;2022-10-16T19:14:14;101610.22;;;12.83;100.00
16016;BME280;8112;53.592;10.184;2022-10-16T19:19:18;101616.38;;;12.50;100.00
16016;BME280;8112;53.592;10.184;2022-10-16T19:24:19;101627.53;;;12.21;100.00
16016;BME280;8112;53.592;10.184;2022-10-16T19:29:21;101626.44;;;12.25;100.00
16016;BME280;8112;53.592;10.184;2022-10-16T19:34:24;101623.47;;;12.32;100.00
16016;BME280;8112;53.592;10.184;2022-10-16T19:39:25;101625.88;;;12.36;100.00
16016;BME280;8112;53.592;10.184;2022-10-16T19:44:27;101641.75;;;12.19;100.00
16016;BME280;8112;53.592;10.184;2022-10-16T19:49:30;101647.41;;;11.93;100.00
16016;BME280;8112;53.592;10.184;2022-10-16T19:54:32;101658.50;;;11.82;100.00
16016;BME280;8112;53.592;10.184;2022-10-16T19:59:35;101661.16;;;11.82;100.00
16016;BME280;8112;53.592;10.184;2022-10-16T20:04:38;101666.44;;;12.00;100.00
16016;BME280;8112;53.592;10.184;2022-10-16T20:09:39;101671.88;;;11.97;100.00
16016;BME280;8112;53.592;10.184;2022-10-16T20:14:41;101664.84;;;12.15;100.00
16016;BME280;8112;53.592;10.184;2022-10-16T20:19:44;101669.44;;;12.11;100.00
16016;BME280;8112;53.592;10.184;2022-10-16T20:24:45;101672.25;;;12.08;100.00
16016;BME280;8112;53.592;10.184;2022-10-16T20:29:47;101675.19;;;12.02;100.00
16016;BME280;8112;53.592;10.184;2022-10-16T20:34:50;101678.16;;;11.94;100.00
16016;BME280;8112;53.592;10.184;2022-10-16T20:39:51;101678.88;;;11.98;100.00
16016;BME280;8112;53.592;10.184;2022-10-16T20:44:53;101693.34;;;11.91;100.00
16016;BME280;8112;53.592;10.184;2022-10-16T20:49:56;101692.13;;;11.79;100.00
16016;BME280;8112;53.592;10.184;2022-10-16T20:54:57;101691.09;;;11.64;100.00
16016;BME280;8112;53.592;10.184;2022-10-16T20:59:59;101699.38;;;11.56;100.00
16016;BME280;8112;53.592;10.184;2022-10-16T21:05:02;101701.97;;;11.58;100.00
16016;BME280;8112;53.592;10.184;2022-10-16T21:10:05;101708.38;;;11.89;100.00
16016;BME280;8112;53.592;10.184;2022-10-16T21:15:07;101709.63;;;11.81;100.00
16016;BME280;8112;53.592;10.184;2022-10-16T21:20:10;101726.34;;;11.63;100.00
16016;BME280;8112;53.592;10.184;2022-10-16T21:25:12;101728.63;;;11.71;100.00
16016;BME280;8112;53.592;10.184;2022-10-16T21:30:13;101731.63;;;11.82;100.00
16016;BME280;8112;53.592;10.184;2022-10-16T21:35:16;101743.31;;;11.76;100.00
16016;BME280;8112;53.592;10.184;2022-10-16T21:40:18;101733.50;;;11.61;100.00
16016;BME280;8112;53.592;10.184;2022-10-16T21:45:19;101758.59;;;11.50;100.00
16016;BME280;8112;53.592;10.184;2022-10-16T21:50:22;101739.06;;;11.54;100.00
16016;BME280;8112;53.592;10.184;2022-10-16T21:55:24;101732.19;;;11.50;100.00
16016;BME280;8112;53.592;10.184;2022-10-16T22:00:26;101747.84;;;11.36;100.00
16016;BME280;8112;53.592;10.184;2022-10-16T22:05:29;101751.63;;;11.30;100.00
16016;BME280;8112;53.592;10.184;2022-10-16T22:10:31;101747.03;;;11.34;100.00
16016;BME280;8112;53.592;10.184;2022-10-16T22:15:32;101741.50;;;11.40;100.00
16016;BME280;8112;53.592;10.184;2022-10-16T22:20:35;101746.78;;;11.40;100.00
16016;BME280;8112;53.592;10.184;2022-10-16T22:25:37;101753.41;;;11.49;100.00
16016;BME280;8112;53.592;10.184;2022-10-16T22:30:39;101746.59;;;11.81;100.00
16016;BME280;8112;53.592;10.184;2022-10-16T22:35:42;101754.16;;;12.08;100.00
16016;BME280;8112;53.592;10.184;2022-10-16T22:40:44;101742.34;;;12.16;100.00
16016;BME280;8112;53.592;10.184;2022-10-16T22:45:45;101729.34;;;12.29;100.00
16016;BME280;8112;53.592;10.184;2022-10-16T22:50:48;101726.50;;;12.33;100.00
16016;BME280;8112;53.592;10.184;2022-10-16T22:55:50;101727.25;;;12.35;100.00
16016;BME280;8112;53.592;10.184;2022-10-16T23:00:52;101726.50;;;12.33;100.00
16016;BME280;8112;53.592;10.184;2022-10-16T23:05:55;101736.50;;;12.26;100.00
16016;BME280;8112;53.592;10.184;2022-10-16T23:10:56;101735.41;;;12.31;100.00
16016;BME280;8112;53.592;10.184;2022-10-16T23:16:02;101738.94;;;12.31;100.00
16016;BME280;8112;53.592;10.184;2022-10-16T23:21:06;101725.94;;;12.44;100.00
16016;BME280;8112;53.592;10.184;2022-10-16T23:26:08;101726.38;;;12.52;100.00
16016;BME280;8112;53.592;10.184;2022-10-16T23:31:12;101721.97;;;12.53;100.00
16016;BME280;8112;53.592;10.184;2022-10-16T23:36:16;101706.03;;;12.54;100.00
16016;BME280;8112;53.592;10.184;2022-10-16T23:41:19;101702.69;;;12.51;100.00
16016;BME280;8112;53.592;10.184;2022-10-16T23:46:21;101691.19;;;12.52;100.00
16016;BME280;8112;53.592;10.184;2022-10-16T23:51:24;101673.78;;;12.48;100.00
16016;BME280;8112;53.592;10.184;2022-10-16T23:56:25;101672.34;;;12.40;100.00
